sensor_id;sensor_type;location;lat;lon;timestamp;temperature;humidity
41262;DHT22;29629;52.532;13.352;2022-10-03T00:01:34;11.80;99.90
41262;DHT22;29629;52.532;13.352;2022-10-03T00:04:20;11.70;99.90
41262;DHT22;29629;52.532;13.352;2022-10-03T00:06:58;11.80;99.90
41262;DHT22;29629;52.532;13.352;2022-10-03T00:09:47;11.80;99.90
41262;DHT22;29629;52.532;13.352;2022-10-03T00:12:43;11.80;99.90
41262;DHT22;29629;52.532;13.352;2022-10-03T00:15:16;11.80;99.90
41262;DHT22;29629;52.532;13.352;2022-10-03T00:17:51;11.80;99.90
41262;DHT22;29629;52.532;13.352;2022-10-03T00:20:39;11.80;99.90
41262;DHT22;29629;52.532;13.352;2022-10-03T00:23:14;11.80;99.90
41262;DHT22;29629;52.532;13.352;2022-10-03T00:25:47;11.80;99.90
41262;DHT22;29629;52.532;13.352;2022-10-03T00:28:26;11.80;99.90
41262;DHT22;29629;52.532;13.352;2022-10-03T00:31:10;11.80;99.90
41262;DHT22;29629;52.532;13.352;2022-10-03T00:33:46;11.80;99.90
41262;DHT22;29629;52.532;13.352;2022-10-03T00:36:23;11.80;99.90
41262;DHT22;29629;52.532;13.352;2022-10-03T00:39:12;11.80;99.90
41262;DHT22;29629;52.532;13.352;2022-10-03T00:41:54;11.90;99.90
41262;DHT22;29629;52.532;13.352;2022-10-03T00:48:01;11.90;99.90
41262;DHT22;29629;52.532;13.352;2022-10-03T00:53:30;11.90;99.90
41262;DHT22;29629;52.532;13.352;2022-10-03T00:56:09;11.80;99.90
41262;DHT22;29629;52.532;13.352;2022-10-03T00:58:54;11.80;99.90
41262;DHT22;29629;52.532;13.352;2022-10-03T01:01:31;11.80;99.90
41262;DHT22;29629;52.532;13.352;2022-10-03T01:04:20;11.80;99.90
41262;DHT22;29629;52.532;13.352;2022-10-03T01:06:59;11.80;99.90
41262;DHT22;29629;52.532;13.352;2022-10-03T01:09:51;11.80;99.90
41262;DHT22;29629;52.532;13.352;2022-10-03T01:12:38;11.80;99.90
41262;DHT22;29629;52.532;13.352;2022-10-03T01:15:19;11.80;99.90
41262;DHT22;29629;52.532;13.352;2022-10-03T01:17:58;11.80;99.90
41262;DHT22;29629;52.532;13.352;2022-10-03T01:20:33;11.70;99.90
41262;DHT22;29629;52.532;13.352;2022-10-03T01:23:21;11.70;99.90
41262;DHT22;29629;52.532;13.352;2022-10-03T01:25:56;11.80;99.90
41262;DHT22;29629;52.532;13.352;2022-10-03T01:28:42;11.80;99.90
41262;DHT22;29629;52.532;13.352;2022-10-03T01:31:33;11.90;99.90
41262;DHT22;29629;52.532;13.352;2022-10-03T01:34:09;11.90;99.90
41262;DHT22;29629;52.532;13.352;2022-10-03T01:36:40;11.90;99.90
41262;DHT22;29629;52.532;13.352;2022-10-03T01:39:13;11.90;99.90
41262;DHT22;29629;52.532;13.352;2022-10-03T01:41:48;11.90;99.90
41262;DHT22;29629;52.532;13.352;2022-10-03T01:44:21;11.90;99.90
41262;DHT22;29629;52.532;13.352;2022-10-03T01:46:53;11.90;99.90
41262;DHT22;29629;52.532;13.352;2022-10-03T01:49:26;11.90;99.90
41262;DHT22;29629;52.532;13.352;2022-10-03T01:52:00;11.90;99.90
41262;DHT22;29629;52.532;13.352;2022-10-03T01:54:35;11.90;99.90
41262;DHT22;29629;52.532;13.352;2022-10-03T01:57:09;11.90;99.90
41262;DHT22;29629;52.532;13.352;2022-10-03T01:59:43;11.90;99.90
41262;DHT22;29629;52.532;13.352;2022-10-03T02:02:15;12.00;99.90
41262;DHT22;29629;52.532;13.352;2022-10-03T02:04:50;12.00;99.90
41262;DHT22;29629;52.532;13.352;2022-10-03T02:07:24;11.90;99.90
41262;DHT22;29629;52.532;13.352;2022-10-03T02:10:02;11.90;99.90
41262;DHT22;29629;52.532;13.352;2022-10-03T02:12:35;12.00;99.90
41262;DHT22;29629;52.532;13.352;2022-10-03T02:15:14;12.00;99.90
41262;DHT22;29629;52.532;13.352;2022-10-03T02:17:49;12.10;99.90
41262;DHT22;29629;52.532;13.352;2022-10-03T02:20:33;12.00;99.90
41262;DHT22;29629;52.532;13.352;2022-10-03T02:23:01;12.00;99.90
41262;DHT22;29629;52.532;13.352;2022-10-03T02:25:53;12.00;99.90
41262;DHT22;29629;52.532;13.352;2022-10-03T02:28:54;12.10;99.90
41262;DHT22;29629;52.532;13.352;2022-10-03T02:31:45;12.00;99.90
41262;DHT22;29629;52.532;13.352;2022-10-03T02:34:39;12.10;99.90
41262;DHT22;29629;52.532;13.352;2022-10-03T02:43:54;12.10;99.90
41262;DHT22;29629;52.532;13.352;2022-10-03T02:47:07;12.20;99.90
41262;DHT22;29629;52.532;13.352;2022-10-03T02:53:15;12.10;99.90
41262;DHT22;29629;52.532;13.352;2022-10-03T02:56:14;12.10;99.90
41262;DHT22;29629;52.532;13.352;2022-10-03T03:02:01;12.10;99.90
41262;DHT22;29629;52.532;13.352;2022-10-03T03:08:19;12.10;99.90
41262;DHT22;29629;52.532;13.352;2022-10-03T03:11:06;12.10;99.90
41262;DHT22;29629;52.532;13.352;2022-10-03T03:14:03;12.20;99.90
41262;DHT22;29629;52.532;13.352;2022-10-03T03:19:50;12.10;99.90
41262;DHT22;29629;52.532;13.352;2022-10-03T03:25:23;12.00;99.90
41262;DHT22;29629;52.532;13.352;2022-10-03T03:28:01;12.10;99.90
41262;DHT22;29629;52.532;13.352;2022-10-03T03:30:36;12.10;99.90
41262;DHT22;29629;52.532;13.352;2022-10-03T03:33:11;12.10;99.90
41262;DHT22;29629;52.532;13.352;2022-10-03T03:35:51;12.10;99.90
41262;DHT22;29629;52.532;13.352;2022-10-03T03:38:28;12.10;99.90
41262;DHT22;29629;52.532;13.352;2022-10-03T03:41:22;12.10;99.90
41262;DHT22;29629;52.532;13.352;2022-10-03T03:44:01;12.10;99.90
41262;DHT22;29629;52.532;13.352;2022-10-03T03:46:43;12.10;99.90
41262;DHT22;29629;52.532;13.352;2022-10-03T03:49:35;12.10;99.90
41262;DHT22;29629;52.532;13.352;2022-10-03T03:52:21;12.10;99.90
41262;DHT22;29629;52.532;13.352;2022-10-03T03:55:11;12.10;99.90
41262;DHT22;29629;52.532;13.352;2022-10-03T03:57:47;12.10;99.90
41262;DHT22;29629;52.532;13.352;2022-10-03T04:00:18;12.10;99.90
41262;DHT22;29629;52.532;13.352;2022-10-03T04:03:01;12.10;99.90
41262;DHT22;29629;52.532;13.352;2022-10-03T04:05:44;12.10;99.90
41262;DHT22;29629;52.532;13.352;2022-10-03T04:11:23;12.10;99.90
41262;DHT22;29629;52.532;13.352;2022-10-03T04:17:13;12.10;99.90
41262;DHT22;29629;52.532;13.352;2022-10-03T04:20:10;12.10;99.90
41262;DHT22;29629;52.532;13.352;2022-10-03T04:22:51;12.10;99.90
41262;DHT22;29629;52.532;13.352;2022-10-03T04:25:40;12.00;99.90
41262;DHT22;29629;52.532;13.352;2022-10-03T04:28:34;12.10;99.90
41262;DHT22;29629;52.532;13.352;2022-10-03T04:31:14;12.00;99.90
41262;DHT22;29629;52.532;13.352;2022-10-03T04:33:55;12.00;99.90
41262;DHT22;29629;52.532;13.352;2022-10-03T04:39:27;12.10;99.90
41262;DHT22;29629;52.532;13.352;2022-10-03T04:42:01;12.00;99.90
41262;DHT22;29629;52.532;13.352;2022-10-03T04:44:42;12.00;99.90
41262;DHT22;29629;52.532;13.352;2022-10-03T04:47:17;12.00;99.90
41262;DHT22;29629;52.532;13.352;2022-10-03T04:49:50;12.00;99.90
41262;DHT22;29629;52.532;13.352;2022-10-03T04:52:25;12.10;99.90
41262;DHT22;29629;52.532;13.352;2022-10-03T04:55:00;12.00;99.90
41262;DHT22;29629;52.532;13.352;2022-10-03T04:57:34;12.00;99.90
41262;DHT22;29629;52.532;13.352;2022-10-03T05:00:19;12.10;99.90
41262;DHT22;29629;52.532;13.352;2022-10-03T05:02:53;12.10;99.90
41262;DHT22;29629;52.532;13.352;2022-10-03T05:05:44;12.00;99.90
41262;DHT22;29629;52.532;13.352;2022-10-03T05:08:21;12.00;99.90
41262;DHT22;29629;52.532;13.352;2022-10-03T05:11:00;12.00;99.90
41262;DHT22;29629;52.532;13.352;2022-10-03T05:13:41;12.10;99.90
41262;DHT22;29629;52.532;13.352;2022-10-03T05:16:19;12.10;99.90
41262;DHT22;29629;52.532;13.352;2022-10-03T05:18:52;12.10;99.90
41262;DHT22;29629;52.532;13.352;2022-10-03T05:21:30;12.10;99.90
41262;DHT22;29629;52.532;13.352;2022-10-03T05:24:04;12.10;99.90
41262;DHT22;29629;52.532;13.352;2022-10-03T05:26:45;12.10;99.90
41262;DHT22;29629;52.532;13.352;2022-10-03T05:29:19;12.10;99.90
41262;DHT22;29629;52.532;13.352;2022-10-03T05:31:59;12.10;99.90
41262;DHT22;29629;52.532;13.352;2022-10-03T05:34:40;12.10;99.90
41262;DHT22;29629;52.532;13.352;2022-10-03T05:37:33;12.10;99.90
41262;DHT22;29629;52.532;13.352;2022-10-03T05:40:02;12.10;99.90
41262;DHT22;29629;52.532;13.352;2022-10-03T05:42:41;12.00;99.90
41262;DHT22;29629;52.532;13.352;2022-10-03T05:45:21;12.00;99.90
41262;DHT22;29629;52.532;13.352;2022-10-03T05:47:54;12.10;99.90
41262;DHT22;29629;52.532;13.352;2022-10-03T05:50:50;12.10;99.90
41262;DHT22;29629;52.532;13.352;2022-10-03T05:56:45;12.10;99.90
41262;DHT22;29629;52.532;13.352;2022-10-03T05:59:34;12.10;99.90
41262;DHT22;29629;52.532;13.352;2022-10-03T06:05:15;12.20;99.90
41262;DHT22;29629;52.532;13.352;2022-10-03T06:08:11;12.20;99.90
41262;DHT22;29629;52.532;13.352;2022-10-03T06:10:50;12.20;99.90
41262;DHT22;29629;52.532;13.352;2022-10-03T06:13:26;12.30;99.90
41262;DHT22;29629;52.532;13.352;2022-10-03T06:16:07;12.20;99.90
41262;DHT22;29629;52.532;13.352;2022-10-03T06:28:34;12.30;99.90
41262;DHT22;29629;52.532;13.352;2022-10-03T06:34:36;12.50;99.90
41262;DHT22;29629;52.532;13.352;2022-10-03T06:37:37;12.50;99.90
41262;DHT22;29629;52.532;13.352;2022-10-03T06:40:41;12.50;99.90
41262;DHT22;29629;52.532;13.352;2022-10-03T06:43:32;12.60;99.90
41262;DHT22;29629;52.532;13.352;2022-10-03T06:46:35;12.50;99.90
41262;DHT22;29629;52.532;13.352;2022-10-03T06:49:29;12.50;99.90
41262;DHT22;29629;52.532;13.352;2022-10-03T06:52:15;12.60;99.90
41262;DHT22;29629;52.532;13.352;2022-10-03T06:55:14;12.50;99.90
41262;DHT22;29629;52.532;13.352;2022-10-03T06:58:08;12.60;99.90
41262;DHT22;29629;52.532;13.352;2022-10-03T07:00:51;12.70;99.90
41262;DHT22;29629;52.532;13.352;2022-10-03T07:03:48;12.70;99.90
41262;DHT22;29629;52.532;13.352;2022-10-03T07:06:46;12.80;99.90
41262;DHT22;29629;52.532;13.352;2022-10-03T07:13:13;13.20;99.90
41262;DHT22;29629;52.532;13.352;2022-10-03T07:16:10;13.20;99.90
41262;DHT22;29629;52.532;13.352;2022-10-03T07:22:21;13.30;99.90
41262;DHT22;29629;52.532;13.352;2022-10-03T07:28:17;13.40;99.90
41262;DHT22;29629;52.532;13.352;2022-10-03T07:31:01;13.40;99.90
41262;DHT22;29629;52.532;13.352;2022-10-03T07:33:46;13.60;99.90
41262;DHT22;29629;52.532;13.352;2022-10-03T07:36:30;13.70;99.90
41262;DHT22;29629;52.532;13.352;2022-10-03T07:45:40;13.90;99.90
41262;DHT22;29629;52.532;13.352;2022-10-03T07:48:37;13.90;99.90
41262;DHT22;29629;52.532;13.352;2022-10-03T07:51:12;13.80;99.90
41262;DHT22;29629;52.532;13.352;2022-10-03T07:54:10;13.90;99.90
41262;DHT22;29629;52.532;13.352;2022-10-03T07:57:10;13.90;99.90
41262;DHT22;29629;52.532;13.352;2022-10-03T08:00:07;13.90;99.90
41262;DHT22;29629;52.532;13.352;2022-10-03T08:02:56;13.80;99.90
41262;DHT22;29629;52.532;13.352;2022-10-03T08:05:49;13.80;99.90
41262;DHT22;29629;52.532;13.352;2022-10-03T08:08:36;13.80;99.90
41262;DHT22;29629;52.532;13.352;2022-10-03T08:11:24;13.90;99.90
41262;DHT22;29629;52.532;13.352;2022-10-03T08:14:00;13.90;99.90
41262;DHT22;29629;52.532;13.352;2022-10-03T08:16:40;13.90;99.90
41262;DHT22;29629;52.532;13.352;2022-10-03T08:19:44;14.00;99.90
41262;DHT22;29629;52.532;13.352;2022-10-03T08:22:30;14.10;99.90
41262;DHT22;29629;52.532;13.352;2022-10-03T08:25:19;14.10;99.90
41262;DHT22;29629;52.532;13.352;2022-10-03T08:28:29;14.20;99.90
41262;DHT22;29629;52.532;13.352;2022-10-03T08:31:36;14.30;99.90
41262;DHT22;29629;52.532;13.352;2022-10-03T08:40:57;14.30;99.90
41262;DHT22;29629;52.532;13.352;2022-10-03T08:43:55;14.50;99.90
41262;DHT22;29629;52.532;13.352;2022-10-03T08:46:46;14.60;99.90
41262;DHT22;29629;52.532;13.352;2022-10-03T08:49:50;14.40;99.90
41262;DHT22;29629;52.532;13.352;2022-10-03T08:52:33;14.60;99.90
41262;DHT22;29629;52.532;13.352;2022-10-03T08:55:42;14.90;99.90
41262;DHT22;29629;52.532;13.352;2022-10-03T08:58:20;15.50;99.90
41262;DHT22;29629;52.532;13.352;2022-10-03T09:01:16;15.40;99.90
41262;DHT22;29629;52.532;13.352;2022-10-03T09:07:27;15.50;99.90
41262;DHT22;29629;52.532;13.352;2022-10-03T09:10:36;15.40;99.90
41262;DHT22;29629;52.532;13.352;2022-10-03T09:13:38;15.20;99.90
41262;DHT22;29629;52.532;13.352;2022-10-03T09:16:33;15.10;99.90
41262;DHT22;29629;52.532;13.352;2022-10-03T09:22:07;14.80;99.90
41262;DHT22;29629;52.532;13.352;2022-10-03T09:25:10;16.80;99.90
41262;DHT22;29629;52.532;13.352;2022-10-03T09:27:51;19.60;99.90
41262;DHT22;29629;52.532;13.352;2022-10-03T09:30:31;18.80;99.90
41262;DHT22;29629;52.532;13.352;2022-10-03T09:33:29;18.10;99.90
41262;DHT22;29629;52.532;13.352;2022-10-03T09:39:21;16.80;99.90
41262;DHT22;29629;52.532;13.352;2022-10-03T09:42:35;16.90;99.90
41262;DHT22;29629;52.532;13.352;2022-10-03T09:45:31;16.60;99.90
41262;DHT22;29629;52.532;13.352;2022-10-03T09:57:28;17.00;99.90
41262;DHT22;29629;52.532;13.352;2022-10-03T10:00:24;17.20;99.90
41262;DHT22;29629;52.532;13.352;2022-10-03T10:03:30;17.00;99.90
41262;DHT22;29629;52.532;13.352;2022-10-03T10:06:23;16.70;99.90
41262;DHT22;29629;52.532;13.352;2022-10-03T10:09:21;16.40;99.90
41262;DHT22;29629;52.532;13.352;2022-10-03T10:15:16;16.10;99.90
41262;DHT22;29629;52.532;13.352;2022-10-03T10:24:02;18.10;99.90
41262;DHT22;29629;52.532;13.352;2022-10-03T10:27:11;19.80;99.90
41262;DHT22;29629;52.532;13.352;2022-10-03T10:30:04;21.00;99.90
41262;DHT22;29629;52.532;13.352;2022-10-03T10:42:29;21.00;99.90
41262;DHT22;29629;52.532;13.352;2022-10-03T10:45:26;21.00;99.90
41262;DHT22;29629;52.532;13.352;2022-10-03T10:48:39;20.80;99.90
41262;DHT22;29629;52.532;13.352;2022-10-03T10:54:53;21.40;99.90
41262;DHT22;29629;52.532;13.352;2022-10-03T10:57:53;20.30;99.90
41262;DHT22;29629;52.532;13.352;2022-10-03T11:00:43;19.70;99.90
41262;DHT22;29629;52.532;13.352;2022-10-03T11:03:46;18.80;99.90
41262;DHT22;29629;52.532;13.352;2022-10-03T11:07:02;18.50;99.90
41262;DHT22;29629;52.532;13.352;2022-10-03T11:25:32;18.00;99.90
41262;DHT22;29629;52.532;13.352;2022-10-03T11:28:49;17.70;99.90
41262;DHT22;29629;52.532;13.352;2022-10-03T11:32:08;17.40;99.90
41262;DHT22;29629;52.532;13.352;2022-10-03T11:35:20;17.30;99.90
41262;DHT22;29629;52.532;13.352;2022-10-03T11:37:56;17.50;99.90
41262;DHT22;29629;52.532;13.352;2022-10-03T11:40:34;17.50;99.90
41262;DHT22;29629;52.532;13.352;2022-10-03T11:46:21;17.20;99.90
41262;DHT22;29629;52.532;13.352;2022-10-03T11:48:53;17.00;99.90
41262;DHT22;29629;52.532;13.352;2022-10-03T11:51:38;17.00;99.90
41262;DHT22;29629;52.532;13.352;2022-10-03T11:54:14;17.00;99.90
41262;DHT22;29629;52.532;13.352;2022-10-03T11:56:46;16.90;99.90
41262;DHT22;29629;52.532;13.352;2022-10-03T11:59:36;17.00;99.90
41262;DHT22;29629;52.532;13.352;2022-10-03T12:02:12;17.40;99.90
41262;DHT22;29629;52.532;13.352;2022-10-03T12:04:49;17.50;99.90
41262;DHT22;29629;52.532;13.352;2022-10-03T12:07:31;17.60;99.90
41262;DHT22;29629;52.532;13.352;2022-10-03T12:10:35;17.70;99.90
41262;DHT22;29629;52.532;13.352;2022-10-03T12:13:09;17.70;99.90
41262;DHT22;29629;52.532;13.352;2022-10-03T12:15:42;18.00;99.90
41262;DHT22;29629;52.532;13.352;2022-10-03T12:18:14;18.10;99.90
41262;DHT22;29629;52.532;13.352;2022-10-03T12:21:08;18.20;99.90
41262;DHT22;29629;52.532;13.352;2022-10-03T12:26:49;20.00;99.90
41262;DHT22;29629;52.532;13.352;2022-10-03T12:29:19;19.00;99.90
41262;DHT22;29629;52.532;13.352;2022-10-03T12:31:58;19.00;99.90
41262;DHT22;29629;52.532;13.352;2022-10-03T12:34:35;19.30;99.90
41262;DHT22;29629;52.532;13.352;2022-10-03T12:37:07;20.30;99.90
41262;DHT22;29629;52.532;13.352;2022-10-03T12:39:42;20.20;99.90
41262;DHT22;29629;52.532;13.352;2022-10-03T12:42:18;21.50;99.90
41262;DHT22;29629;52.532;13.352;2022-10-03T12:44:53;21.00;99.90
41262;DHT22;29629;52.532;13.352;2022-10-03T12:47:27;20.30;99.90
41262;DHT22;29629;52.532;13.352;2022-10-03T12:50:00;20.30;99.90
41262;DHT22;29629;52.532;13.352;2022-10-03T12:52:34;19.70;99.90
41262;DHT22;29629;52.532;13.352;2022-10-03T12:55:19;19.50;99.90
41262;DHT22;29629;52.532;13.352;2022-10-03T12:57:59;19.50;99.90
41262;DHT22;29629;52.532;13.352;2022-10-03T13:00:33;19.60;99.90
41262;DHT22;29629;52.532;13.352;2022-10-03T13:03:18;18.80;99.90
41262;DHT22;29629;52.532;13.352;2022-10-03T13:08:56;20.10;99.90
41262;DHT22;29629;52.532;13.352;2022-10-03T13:11:34;21.50;99.90
41262;DHT22;29629;52.532;13.352;2022-10-03T13:14:18;22.30;99.90
41262;DHT22;29629;52.532;13.352;2022-10-03T13:16:58;22.50;99.90
41262;DHT22;29629;52.532;13.352;2022-10-03T13:19:29;21.00;99.90
41262;DHT22;29629;52.532;13.352;2022-10-03T13:22:03;21.70;99.90
41262;DHT22;29629;52.532;13.352;2022-10-03T13:24:38;21.20;99.90
41262;DHT22;29629;52.532;13.352;2022-10-03T13:27:29;21.10;99.90
41262;DHT22;29629;52.532;13.352;2022-10-03T13:30:04;20.30;99.90
41262;DHT22;29629;52.532;13.352;2022-10-03T13:32:34;20.00;99.90
41262;DHT22;29629;52.532;13.352;2022-10-03T13:35:06;19.50;99.90
41262;DHT22;29629;52.532;13.352;2022-10-03T13:38:21;19.70;99.90
41262;DHT22;29629;52.532;13.352;2022-10-03T13:40:57;19.50;99.90
41262;DHT22;29629;52.532;13.352;2022-10-03T13:43:29;19.10;99.90
41262;DHT22;29629;52.532;13.352;2022-10-03T13:46:02;19.40;99.90
41262;DHT22;29629;52.532;13.352;2022-10-03T13:48:33;19.70;99.90
41262;DHT22;29629;52.532;13.352;2022-10-03T13:51:05;19.30;99.90
41262;DHT22;29629;52.532;13.352;2022-10-03T13:53:47;19.40;99.90
41262;DHT22;29629;52.532;13.352;2022-10-03T13:56:23;19.20;99.90
41262;DHT22;29629;52.532;13.352;2022-10-03T13:58:56;19.10;99.90
41262;DHT22;29629;52.532;13.352;2022-10-03T14:01:39;19.10;99.90
41262;DHT22;29629;52.532;13.352;2022-10-03T14:04:26;18.80;99.90
41262;DHT22;29629;52.532;13.352;2022-10-03T14:07:02;18.70;99.90
41262;DHT22;29629;52.532;13.352;2022-10-03T14:09:40;18.40;99.90
41262;DHT22;29629;52.532;13.352;2022-10-03T14:12:20;18.10;99.90
41262;DHT22;29629;52.532;13.352;2022-10-03T14:15:10;17.90;99.90
41262;DHT22;29629;52.532;13.352;2022-10-03T14:17:49;17.90;99.90
41262;DHT22;29629;52.532;13.352;2022-10-03T14:20:23;17.70;99.90
41262;DHT22;29629;52.532;13.352;2022-10-03T14:23:05;17.50;99.90
41262;DHT22;29629;52.532;13.352;2022-10-03T14:25:36;17.30;99.90
41262;DHT22;29629;52.532;13.352;2022-10-03T14:28:15;17.20;99.90
41262;DHT22;29629;52.532;13.352;2022-10-03T14:30:52;17.30;99.90
41262;DHT22;29629;52.532;13.352;2022-10-03T14:33:30;17.10;99.90
41262;DHT22;29629;52.532;13.352;2022-10-03T14:36:10;17.30;99.90
41262;DHT22;29629;52.532;13.352;2022-10-03T14:38:53;17.30;99.90
41262;DHT22;29629;52.532;13.352;2022-10-03T14:41:43;17.40;99.90
41262;DHT22;29629;52.532;13.352;2022-10-03T14:44:14;17.20;99.90
41262;DHT22;29629;52.532;13.352;2022-10-03T14:46:47;17.10;99.90
41262;DHT22;29629;52.532;13.352;2022-10-03T14:49:19;17.20;99.90
41262;DHT22;29629;52.532;13.352;2022-10-03T14:51:50;17.20;99.90
41262;DHT22;29629;52.532;13.352;2022-10-03T14:54:22;17.20;99.90
41262;DHT22;29629;52.532;13.352;2022-10-03T14:56:50;17.00;99.90
41262;DHT22;29629;52.532;13.352;2022-10-03T14:59:19;17.10;99.90
41262;DHT22;29629;52.532;13.352;2022-10-03T15:01:49;16.80;99.90
41262;DHT22;29629;52.532;13.352;2022-10-03T15:04:25;16.80;99.90
41262;DHT22;29629;52.532;13.352;2022-10-03T15:06:54;16.70;99.90
41262;DHT22;29629;52.532;13.352;2022-10-03T15:09:24;16.70;99.90
41262;DHT22;29629;52.532;13.352;2022-10-03T15:11:59;16.70;99.90
41262;DHT22;29629;52.532;13.352;2022-10-03T15:14:31;16.80;99.90
41262;DHT22;29629;52.532;13.352;2022-10-03T15:17:06;16.80;99.90
41262;DHT22;29629;52.532;13.352;2022-10-03T15:19:44;16.70;99.90
41262;DHT22;29629;52.532;13.352;2022-10-03T15:22:21;16.70;99.90
41262;DHT22;29629;52.532;13.352;2022-10-03T15:24:52;16.60;99.90
41262;DHT22;29629;52.532;13.352;2022-10-03T15:27:21;16.60;99.90
41262;DHT22;29629;52.532;13.352;2022-10-03T15:29:52;16.60;99.90
41262;DHT22;29629;52.532;13.352;2022-10-03T15:32:24;16.50;99.90
41262;DHT22;29629;52.532;13.352;2022-10-03T15:34:57;16.40;99.90
41262;DHT22;29629;52.532;13.352;2022-10-03T15:37:28;16.40;99.90
41262;DHT22;29629;52.532;13.352;2022-10-03T15:40:00;16.30;99.90
41262;DHT22;29629;52.532;13.352;2022-10-03T15:42:30;16.40;99.90
41262;DHT22;29629;52.532;13.352;2022-10-03T15:45:00;16.30;99.90
41262;DHT22;29629;52.532;13.352;2022-10-03T15:47:31;16.30;99.90
41262;DHT22;29629;52.532;13.352;2022-10-03T15:50:03;16.30;99.90
41262;DHT22;29629;52.532;13.352;2022-10-03T15:52:35;16.20;99.90
41262;DHT22;29629;52.532;13.352;2022-10-03T15:55:06;16.10;99.90
41262;DHT22;29629;52.532;13.352;2022-10-03T15:57:35;16.10;99.90
41262;DHT22;29629;52.532;13.352;2022-10-03T16:00:05;16.10;99.90
41262;DHT22;29629;52.532;13.352;2022-10-03T16:02:35;16.00;99.90
41262;DHT22;29629;52.532;13.352;2022-10-03T16:05:06;16.00;99.90
41262;DHT22;29629;52.532;13.352;2022-10-03T16:07:42;16.00;99.90
41262;DHT22;29629;52.532;13.352;2022-10-03T16:10:17;16.00;99.90
41262;DHT22;29629;52.532;13.352;2022-10-03T16:12:54;15.90;99.90
41262;DHT22;29629;52.532;13.352;2022-10-03T16:15:25;15.90;99.90
41262;DHT22;29629;52.532;13.352;2022-10-03T16:17:55;15.90;99.90
41262;DHT22;29629;52.532;13.352;2022-10-03T16:20:28;15.90;99.90
41262;DHT22;29629;52.532;13.352;2022-10-03T16:22:57;15.80;99.90
41262;DHT22;29629;52.532;13.352;2022-10-03T16:25:27;15.80;99.90
41262;DHT22;29629;52.532;13.352;2022-10-03T16:27:58;15.80;99.90
41262;DHT22;29629;52.532;13.352;2022-10-03T16:30:29;15.70;99.90
41262;DHT22;29629;52.532;13.352;2022-10-03T16:33:02;15.60;99.90
41262;DHT22;29629;52.532;13.352;2022-10-03T16:35:40;15.60;99.90
41262;DHT22;29629;52.532;13.352;2022-10-03T16:38:18;15.60;99.90
41262;DHT22;29629;52.532;13.352;2022-10-03T16:40:54;15.50;99.90
41262;DHT22;29629;52.532;13.352;2022-10-03T16:43:23;15.40;99.90
41262;DHT22;29629;52.532;13.352;2022-10-03T16:45:51;15.50;99.90
41262;DHT22;29629;52.532;13.352;2022-10-03T16:48:21;15.50;99.90
41262;DHT22;29629;52.532;13.352;2022-10-03T16:51:16;15.40;99.90
41262;DHT22;29629;52.532;13.352;2022-10-03T16:53:44;15.40;99.90
41262;DHT22;29629;52.532;13.352;2022-10-03T16:56:14;15.40;99.90
41262;DHT22;29629;52.532;13.352;2022-10-03T16:58:45;15.30;99.90
41262;DHT22;29629;52.532;13.352;2022-10-03T17:01:22;15.30;99.90
41262;DHT22;29629;52.532;13.352;2022-10-03T17:03:55;15.30;99.90
41262;DHT22;29629;52.532;13.352;2022-10-03T17:06:28;15.30;99.90
41262;DHT22;29629;52.532;13.352;2022-10-03T17:08:58;15.20;99.90
41262;DHT22;29629;52.532;13.352;2022-10-03T17:11:27;15.20;99.90
41262;DHT22;29629;52.532;13.352;2022-10-03T17:13:58;15.10;99.90
41262;DHT22;29629;52.532;13.352;2022-10-03T17:16:33;15.10;99.90
41262;DHT22;29629;52.532;13.352;2022-10-03T17:19:14;15.10;99.90
41262;DHT22;29629;52.532;13.352;2022-10-03T17:21:46;15.10;99.90
41262;DHT22;29629;52.532;13.352;2022-10-03T17:24:30;15.00;99.90
41262;DHT22;29629;52.532;13.352;2022-10-03T17:27:00;15.00;99.90
41262;DHT22;29629;52.532;13.352;2022-10-03T17:29:32;15.00;99.90
41262;DHT22;29629;52.532;13.352;2022-10-03T17:32:02;15.00;99.90
41262;DHT22;29629;52.532;13.352;2022-10-03T17:34:38;15.00;99.90
41262;DHT22;29629;52.532;13.352;2022-10-03T17:37:16;15.00;99.90
41262;DHT22;29629;52.532;13.352;2022-10-03T17:39:52;14.90;99.90
41262;DHT22;29629;52.532;13.352;2022-10-03T17:42:31;14.90;99.90
41262;DHT22;29629;52.532;13.352;2022-10-03T17:45:08;14.90;99.90
41262;DHT22;29629;52.532;13.352;2022-10-03T17:47:46;14.80;99.90
41262;DHT22;29629;52.532;13.352;2022-10-03T17:50:21;14.80;99.90
41262;DHT22;29629;52.532;13.352;2022-10-03T17:52:50;14.80;99.90
41262;DHT22;29629;52.532;13.352;2022-10-03T17:55:22;14.80;99.90
41262;DHT22;29629;52.532;13.352;2022-10-03T17:57:54;14.80;99.90
41262;DHT22;29629;52.532;13.352;2022-10-03T18:00:24;14.70;99.90
41262;DHT22;29629;52.532;13.352;2022-10-03T18:02:59;14.70;99.90
41262;DHT22;29629;52.532;13.352;2022-10-03T18:05:29;14.70;99.90
41262;DHT22;29629;52.532;13.352;2022-10-03T18:08:05;14.70;99.90
41262;DHT22;29629;52.532;13.352;2022-10-03T18:10:36;14.70;99.90
41262;DHT22;29629;52.532;13.352;2022-10-03T18:13:13;14.70;99.90
41262;DHT22;29629;52.532;13.352;2022-10-03T18:16:05;14.70;99.90
41262;DHT22;29629;52.532;13.352;2022-10-03T18:19:03;14.70;99.90
41262;DHT22;29629;52.532;13.352;2022-10-03T18:21:54;14.60;99.90
41262;DHT22;29629;52.532;13.352;2022-10-03T18:24:39;14.60;99.90
41262;DHT22;29629;52.532;13.352;2022-10-03T18:30:14;14.60;99.90
41262;DHT22;29629;52.532;13.352;2022-10-03T18:32:43;14.60;99.90
41262;DHT22;29629;52.532;13.352;2022-10-03T18:35:14;14.50;99.90
41262;DHT22;29629;52.532;13.352;2022-10-03T18:38:10;14.50;99.90
41262;DHT22;29629;52.532;13.352;2022-10-03T18:40:45;14.50;99.90
41262;DHT22;29629;52.532;13.352;2022-10-03T18:43:26;14.40;99.90
41262;DHT22;29629;52.532;13.352;2022-10-03T18:45:57;14.30;99.90
41262;DHT22;29629;52.532;13.352;2022-10-03T18:48:32;14.30;99.90
41262;DHT22;29629;52.532;13.352;2022-10-03T18:51:10;14.30;99.90
41262;DHT22;29629;52.532;13.352;2022-10-03T18:53:43;14.20;99.90
41262;DHT22;29629;52.532;13.352;2022-10-03T18:56:19;14.20;99.90
41262;DHT22;29629;52.532;13.352;2022-10-03T18:59:06;14.10;99.90
41262;DHT22;29629;52.532;13.352;2022-10-03T19:01:42;14.10;99.90
41262;DHT22;29629;52.532;13.352;2022-10-03T19:04:10;14.10;99.90
41262;DHT22;29629;52.532;13.352;2022-10-03T19:06:42;14.10;99.90
41262;DHT22;29629;52.532;13.352;2022-10-03T19:09:15;14.10;99.90
41262;DHT22;29629;52.532;13.352;2022-10-03T19:11:49;14.10;99.90